WetterOnline ( https://www.wetteronline.de )

Wetter aktuell Badekow

Aktuelles Wetter: Boizenburg (46m)

6-stündlich | Neueste Meldungen
Ortszeit Temperatur Wetter
Mi, 12.08. 2:00 19.1° C wolkenlos
Di, 11.08. 20:00 28.5° C wolkenlos
Di, 11.08. 14:00 31.4° C wolkenlos
Di, 11.08. 8:00 20.3° C wolkenlos
Di, 11.08. 2:00 18.8° C wolkenlos
Mo, 10.08. 20:00 25.9° C wolkenlos
Mo, 10.08. 14:00 32.8° C leicht bewölkt
Mo, 10.08. 8:00 21.3° C wolkenlos
Ortszeit Temperatur Wetter
Mi, 12.08. 5:00 15.9° C fast wolkenlos
Mi, 12.08. 4:50 15.9° C fast wolkenlos
Mi, 12.08. 4:40 15.9° C leicht bewölkt
Mi, 12.08. 4:30 16.1° C wolkig
Mi, 12.08. 4:20 16.1° C wolkig
Mi, 12.08. 4:10 16.3° C leicht bewölkt
Mi, 12.08. 4:00 16.6° C wolkenlos
Mi, 12.08. 3:30 17.2° C wolkenlos
Mi, 12.08. 3:00 17.6° C wolkenlos
Mi, 12.08. 2:30 18.4° C wolkenlos
Mi, 12.08. 2:00 19.1° C wolkenlos
Mi, 12.08. 1:30 19.5° C wolkenlos
Ortszeit Relative Feuchte Sichtweite
Mi, 12.08. 2:00 60% 65 km
Di, 11.08. 20:00 42% 55 km
Di, 11.08. 14:00 35% 45 km
Di, 11.08. 8:00 83% 30 km
Di, 11.08. 2:00 89% 27 km
Mo, 10.08. 20:00 59% 45 km
Mo, 10.08. 14:00 36% 45 km
Mo, 10.08. 8:00 79% 23 km
Ortszeit Relative Feuchte Sichtweite
Mi, 12.08. 5:00 83% 45 km
Mi, 12.08. 4:50 83% -
Mi, 12.08. 4:40 82% -
Mi, 12.08. 4:30 80% 50 km
Mi, 12.08. 4:20 80% -
Mi, 12.08. 4:10 79% -
Mi, 12.08. 4:00 77% 65 km
Mi, 12.08. 3:30 72% 50 km
Mi, 12.08. 3:00 67% 60 km
Mi, 12.08. 2:30 63% 65 km
Mi, 12.08. 2:00 60% 65 km
Mi, 12.08. 1:30 62% 65 km
Ortszeit Niederschlagsmenge Niederschlagsart
Mi, 12.08. 2:00 0.0 l/m2 in 6 Std. -
Di, 11.08. 20:00 0.0 l/m2 in 12 Std. -
Di, 11.08. 14:00 0.0 l/m2 in 6 Std. -
Di, 11.08. 8:00 0.0 l/m2 in 12 Std. -
Di, 11.08. 2:00 0.0 l/m2 in 6 Std. -
Mo, 10.08. 20:00 0.8 l/m2 in 12 Std. Regen
Mo, 10.08. 14:00 0.0 l/m2 in 6 Std. -
Mo, 10.08. 8:00 0.0 l/m2 in 12 Std. -
Ortszeit Niederschlagsmenge Niederschlagsart
Mi, 12.08. 5:00 0.0 l/m2 in 1 Std. -
Mi, 12.08. 4:50 keine Meldung -
Mi, 12.08. 4:40 keine Meldung -
Mi, 12.08. 4:30 0.0 l/m2 in 1 Std. -
Mi, 12.08. 4:20 keine Meldung -
Mi, 12.08. 4:10 keine Meldung -
Mi, 12.08. 4:00 0.0 l/m2 in 1 Std. -
Mi, 12.08. 3:30 0.0 l/m2 in 1 Std. -
Mi, 12.08. 3:00 0.0 l/m2 in 1 Std. -
Mi, 12.08. 2:30 0.0 l/m2 in 1 Std. -
Mi, 12.08. 2:00 0.0 l/m2 in 1 Std. -
Mi, 12.08. 1:30 0.0 l/m2 in 1 Std. -
Ortszeit Stärke Spitze Richtung
km/h Bft. km/h Grad Sektor
Mi, 12.08. 2:00 13 3 30 80° O
Di, 11.08. 20:00 19 3 37 60° NO
Di, 11.08. 14:00 18 3 32 110° O
Di, 11.08. 8:00 9 2 17 80° O
Di, 11.08. 2:00 7 2 35 60° NO
Mo, 10.08. 20:00 11 2 32 70° O
Mo, 10.08. 14:00 13 3 28 110° O
Mo, 10.08. 8:00 4 1 14 30° NO
Ortszeit Stärke Spitze Richtung
km/h Bft. km/h Grad Sektor
Mi, 12.08. 5:00 9 2 13 70° O
Mi, 12.08. 4:50 9 2 - 70° O
Mi, 12.08. 4:40 9 2 - 70° O
Mi, 12.08. 4:30 7 2 11 80° O
Mi, 12.08. 4:20 7 2 - 80° O
Mi, 12.08. 4:10 7 2 - 90° O
Mi, 12.08. 4:00 7 2 14 80° O
Mi, 12.08. 3:30 11 2 14 70° O
Mi, 12.08. 3:00 7 2 18 80° O
Mi, 12.08. 2:30 11 2 18 80° O
Mi, 12.08. 2:00 13 3 24 80° O
Mi, 12.08. 1:30 13 3 22 80° O
Ortszeit Untergrenze Bedeckung Gattung
total tief tief mittel hoch
Mi, 12.08. 2:00 - 0/8 0/8 - - -
Di, 11.08. 20:00 - 0/8 0/8 - - -
Di, 11.08. 14:00 - 0/8 0/8 - - -
Di, 11.08. 8:00 - 0/8 0/8 - - -
Di, 11.08. 2:00 - 0/8 0/8 - - -
Mo, 10.08. 20:00 - 0/8 0/8 - - -
Mo, 10.08. 14:00 1800 m 4/8 3/8 - - -
Mo, 10.08. 8:00 - 0/8 0/8 - - -
Ortszeit Bedeckungsgrad in Achtel und Wolkenuntergrenze
Mi, 12.08. 5:00 2(10500m)
Mi, 12.08. 4:50 2(10500m)
Mi, 12.08. 4:40 4(10500m)
Mi, 12.08. 4:30 7(10500m)
Mi, 12.08. 4:20 7(10500m)
Mi, 12.08. 4:10 6(10500m)
Mi, 12.08. 4:00 4(10500m)
Mi, 12.08. 3:30 keine Wolken
Mi, 12.08. 3:00 keine Wolken
Mi, 12.08. 2:30 keine Wolken
Mi, 12.08. 2:00 keine Wolken
Mi, 12.08. 1:30 keine Wolken
Ortszeit Luftdruck NN (hPa) Tendenz (hPa in 3 Std.)
Mi, 12.08. 2:00 1021 + 0,3
Di, 11.08. 20:00 1019 - 0,1
Di, 11.08. 14:00 1020 - 0,4
Di, 11.08. 8:00 1020 + 0,4
Di, 11.08. 2:00 1020 + 0,7
Mo, 10.08. 20:00 1018 + 1,4
Mo, 10.08. 14:00 1017 - 0,3
Mo, 10.08. 8:00 1018 + 0,3
Ortszeit Luftdruck NN (hPa) Tendenz (hPa in 3 Std.)
Mi, 12.08. 5:00 1020 - 0,8
Mi, 12.08. 4:50 1020 keine Meldung
Mi, 12.08. 4:40 1020 keine Meldung
Mi, 12.08. 4:30 1020 - 0,6
Mi, 12.08. 4:20 1020 keine Meldung
Mi, 12.08. 4:10 1020 keine Meldung
Mi, 12.08. 4:00 1020 - 0,5
Mi, 12.08. 3:30 1020 - 0,3
Mi, 12.08. 3:00 1020 - 0,2
Mi, 12.08. 2:30 1020 + 0,1
Mi, 12.08. 2:00 1021 + 0,3
Mi, 12.08. 1:30 1021 + 0,6
Ortszeit Schneehöhe (cm)
Mi, 12.08. 2:00 -
Di, 11.08. 20:00 -
Di, 11.08. 14:00 -
Di, 11.08. 8:00 -
Di, 11.08. 2:00 -
Mo, 10.08. 20:00 -
Mo, 10.08. 14:00 -
Mo, 10.08. 8:00 -
Ortszeit Schneehöhe (cm)
Mi, 12.08. 5:00 -
Mi, 12.08. 4:50 -
Mi, 12.08. 4:40 -
Mi, 12.08. 4:30 -
Mi, 12.08. 4:20 -
Mi, 12.08. 4:10 -
Mi, 12.08. 4:00 -
Mi, 12.08. 3:30 -
Mi, 12.08. 3:00 -
Mi, 12.08. 2:30 -
Mi, 12.08. 2:00 -
Mi, 12.08. 1:30 -
Link zu dieser Seite / Seite empfehlen

Das Wetter in ...